Mendola Village, Kentucky
Current Conditions -  °F | °C
As of 10:55 AM on Wednesday 28 Jan 2015 (Local Time) from KSJS Reporting Station
Scattered Clouds Scattered Clouds  
Wind Chill: 24°   Ceiling: Unl
Heat Index: 24°   Visibility: 10mi
Dew Point: 17°   Wind: 0mph
Humidity: 73%   Direction: NA
Pressure: 30.38"   Gusts: NA
Location:  37.7639°N, 82.7875°W
Report Text: KSJS 281555Z AUTO 00000KT 10SM SCT017 M04/M09 A3038 RMK AO2 T10441086
Loading
Personal Weather Stations






























Interactive Weather Map New forecast layout! Learn more

10-Day Weather Forecast

Advertisements
Track Severe Weather on mobile